createdAt,value
2018-01-04T00:00:41.534Z,97151.13
2018-01-04T00:03:09.879Z,97142.00
2018-01-04T00:05:38.313Z,97142.58
2018-01-04T00:08:07.438Z,97144.83
2018-01-04T00:10:35.785Z,97134.30
2018-01-04T00:13:04.129Z,97136.62
2018-01-04T00:15:32.474Z,97140.80
2018-01-04T00:18:02.724Z,97129.68
2018-01-04T00:20:31.557Z,97133.95
2018-01-04T00:22:59.892Z,97131.64
2018-01-04T00:25:28.346Z,97135.09
2018-01-04T00:27:56.744Z,97128.11
2018-01-04T00:30:26.440Z,97123.10
2018-01-04T00:32:54.880Z,97137.84
2018-01-04T00:35:23.297Z,97141.11
2018-01-04T00:37:52.135Z,97138.39
2018-01-04T00:40:20.436Z,97151.95
2018-01-04T00:42:49.519Z,97150.98
2018-01-04T00:45:17.823Z,97153.19
2018-01-04T00:47:46.196Z,97154.88
2018-01-04T00:50:14.565Z,97148.47
2018-01-04T00:52:43.497Z,97156.59
2018-01-04T00:55:11.812Z,97147.78
2018-01-04T00:57:40.163Z,97147.56
2018-01-04T01:00:08.463Z,97144.46
2018-01-04T01:02:36.787Z,97148.90
2018-01-04T01:05:05.128Z,97144.14
2018-01-04T01:07:33.427Z,97152.52
2018-01-04T01:10:02.837Z,97151.51
2018-01-04T01:12:31.192Z,97149.36
2018-01-04T01:14:59.501Z,97148.51
2018-01-04T01:17:27.824Z,97148.20
2018-01-04T01:19:56.179Z,97156.81
2018-01-04T01:22:24.483Z,97153.66
2018-01-04T01:24:52.792Z,97164.51
2018-01-04T01:27:21.908Z,97165.63
2018-01-04T01:29:50.268Z,97176.02
2018-01-04T01:32:18.585Z,97167.97
2018-01-04T01:34:46.946Z,97163.70
2018-01-04T01:37:15.611Z,97165.20
2018-01-04T01:39:43.940Z,97164.27
2018-01-04T01:42:12.271Z,97150.17
2018-01-04T01:44:40.639Z,97155.23
2018-01-04T01:47:08.988Z,97139.82
2018-01-04T01:49:37.344Z,97144.38
2018-01-04T01:52:05.644Z,97142.91
2018-01-04T01:54:33.947Z,97139.57
2018-01-04T01:57:02.294Z,97133.81
2018-01-04T01:59:30.892Z,97120.61
2018-01-04T02:01:59.195Z,97112.25
2018-01-04T02:04:28.307Z,97105.45
2018-01-04T02:06:56.680Z,97102.15
2018-01-04T02:09:25.239Z,97118.77
2018-01-04T02:11:53.600Z,97112.94
2018-01-04T02:14:21.911Z,97112.45
2018-01-04T02:16:50.215Z,97104.46
2018-01-04T02:19:36.071Z,97094.43
2018-01-04T02:22:22.013Z,97093.23
2018-01-04T02:25:08.357Z,97090.55
2018-01-04T02:27:54.160Z,97082.98
2018-01-04T02:30:41.029Z,97082.75
2018-01-04T02:33:27.315Z,97092.72
2018-01-04T02:36:13.477Z,97089.75
2018-01-04T02:38:59.034Z,97084.80
2018-01-04T02:55:01.452Z,97060.01
2018-01-04T02:57:29.765Z,97068.62
2018-01-04T02:59:58.069Z,97074.97
2018-01-04T03:02:26.421Z,97079.02
2018-01-04T03:04:54.948Z,97079.86
2018-01-04T03:07:23.285Z,97072.96
2018-01-04T03:09:51.641Z,97074.52
2018-01-04T03:12:19.951Z,97081.11
2018-01-04T03:14:49.633Z,97089.66
2018-01-04T03:17:18.602Z,97105.77
2018-01-04T03:19:46.940Z,97111.63
2018-01-04T03:22:20.651Z,97107.97
2018-01-04T03:24:55.132Z,97113.89
2018-01-04T03:27:28.901Z,97106.58
2018-01-04T03:30:02.612Z,97106.48
2018-01-04T03:32:37.255Z,97095.99
2018-01-04T03:48:34.168Z,97090.05
2018-01-04T03:51:08.439Z,97080.34
2018-01-04T03:53:42.141Z,97082.50
2018-01-04T03:56:15.886Z,97068.81
2018-01-04T03:58:49.735Z,97061.88
2018-01-04T04:01:23.463Z,97059.45
2018-01-04T04:03:52.408Z,97060.13
2018-01-04T04:06:26.137Z,97053.07
2018-01-04T04:08:54.526Z,97058.05
2018-01-04T04:11:23.051Z,97049.77
2018-01-04T04:13:51.760Z,97065.68
2018-01-04T04:16:20.107Z,97069.09
2018-01-04T04:18:48.410Z,97067.27
2018-01-04T04:21:16.724Z,97070.16
2018-01-04T04:23:45.067Z,97069.34
2018-01-04T04:26:13.607Z,97071.78
2018-01-04T04:28:41.920Z,97063.53
2018-01-04T04:31:10.908Z,97064.77
2018-01-04T04:33:39.260Z,97064.02
2018-01-04T04:36:07.716Z,97082.58
2018-01-04T04:38:36.076Z,97082.97
2018-01-04T04:41:04.376Z,97085.20
2018-01-04T04:43:32.686Z,97080.33
2018-01-04T04:46:01.031Z,97086.09
2018-01-04T04:48:29.740Z,97089.03
2018-01-04T04:50:58.051Z,97081.75
2018-01-04T04:53:26.401Z,97074.50
2018-01-04T04:55:54.720Z,97065.13
2018-01-04T04:58:23.092Z,97058.84
2018-01-04T05:00:51.997Z,97048.34
2018-01-04T05:03:20.305Z,97044.55
2018-01-04T05:05:49.083Z,97046.38
2018-01-04T05:08:17.428Z,97037.73
2018-01-04T05:10:45.728Z,97026.89
2018-01-04T05:13:14.035Z,97033.34
2018-01-04T05:15:42.667Z,97032.95
2018-01-04T05:18:11.039Z,97041.05
2018-01-04T05:20:39.876Z,97032.22
2018-01-04T05:23:08.678Z,97037.37
2018-01-04T05:25:37.197Z,97042.44
2018-01-04T05:28:05.856Z,97037.52
2018-01-04T05:30:34.585Z,97044.39
2018-01-04T05:33:03.457Z,97054.83
2018-01-04T05:35:32.457Z,97055.22
2018-01-04T05:38:01.876Z,97055.22
2018-01-04T05:40:30.796Z,97059.91
2018-01-04T05:42:59.088Z,97059.49
2018-01-04T05:45:27.572Z,97056.34
2018-01-04T05:47:56.636Z,97056.12
2018-01-04T05:50:25.163Z,97053.55
2018-01-04T05:52:53.512Z,97057.13
2018-01-04T05:55:21.819Z,97059.53
2018-01-04T05:57:50.139Z,97054.75
2018-01-04T06:00:18.504Z,97042.28
2018-01-04T06:02:46.804Z,97046.68
2018-01-04T06:05:15.404Z,97038.67
2018-01-04T06:07:43.773Z,97038.69
2018-01-04T06:10:12.072Z,97045.01
2018-01-04T06:12:40.392Z,97033.17
2018-01-04T06:15:09.068Z,97032.56
2018-01-04T06:17:37.880Z,97037.84
2018-01-04T06:20:06.176Z,97040.02
2018-01-04T06:22:34.533Z,97031.86
2018-01-04T06:25:02.837Z,97028.91
2018-01-04T06:27:31.140Z,97036.16
2018-01-04T06:29:59.839Z,97039.27
2018-01-04T06:32:29.641Z,97028.56
2018-01-04T06:34:57.952Z,97020.25
2018-01-04T06:37:26.300Z,97026.72
2018-01-04T06:39:55.754Z,97031.39
2018-01-04T06:42:24.060Z,97029.00
2018-01-04T06:44:53.264Z,97029.10
2018-01-04T06:47:21.329Z,97024.10
2018-01-04T06:49:49.924Z,97029.20
2018-01-04T06:52:18.912Z,97016.02
2018-01-04T06:54:47.227Z,97018.41
2018-01-04T06:57:15.524Z,97015.25
2018-01-04T06:59:43.853Z,97006.65
2018-01-04T07:02:12.916Z,97006.80
2018-01-04T07:04:41.391Z,97003.93
2018-01-04T07:07:10.823Z,97003.13
2018-01-04T07:09:39.163Z,96997.14
2018-01-04T07:12:08.216Z,96985.78
2018-01-04T07:14:36.682Z,96978.20
2018-01-04T07:17:04.984Z,96975.61
2018-01-04T07:19:33.288Z,96980.02
2018-01-04T07:22:01.644Z,96974.45
2018-01-04T07:24:29.948Z,96961.98
2018-01-04T07:26:58.256Z,96956.84
2018-01-04T07:29:27.170Z,96950.67
2018-01-04T07:31:55.612Z,96958.45
2018-01-04T07:34:23.903Z,96968.48
2018-01-04T07:36:52.547Z,96956.06
2018-01-04T07:39:20.859Z,96960.19
2018-01-04T07:41:49.528Z,96945.47
2018-01-04T07:44:17.841Z,96945.03
2018-01-04T07:46:46.820Z,96950.26
2018-01-04T07:49:15.716Z,96948.09
2018-01-04T07:51:44.024Z,96948.30
2018-01-04T07:54:12.432Z,96959.59
2018-01-04T07:56:41.260Z,96966.41
2018-01-04T07:59:09.703Z,96943.23
2018-01-04T08:01:38.206Z,96936.37
2018-01-04T08:04:06.972Z,96933.14
2018-01-04T08:06:35.308Z,96937.53
2018-01-04T08:09:03.687Z,96931.88
2018-01-04T08:11:31.992Z,96920.72
2018-01-04T08:14:00.291Z,96916.23
2018-01-04T08:16:28.658Z,96901.20
2018-01-04T08:18:57.479Z,96897.75
2018-01-04T08:21:25.844Z,96895.44
2018-01-04T08:23:54.144Z,96887.98
2018-01-04T08:26:22.567Z,96913.67
2018-01-04T08:28:51.444Z,96909.78
2018-01-04T08:31:20.936Z,96903.39
2018-01-04T08:33:50.020Z,96903.02
2018-01-04T08:36:18.335Z,96903.23
2018-01-04T08:38:46.692Z,96905.38
2018-01-04T08:41:15.054Z,96904.88
2018-01-04T08:43:43.371Z,96906.03
2018-01-04T08:46:11.672Z,96914.22
2018-01-04T08:48:40.017Z,96917.45
2018-01-04T08:51:08.332Z,96908.19
2018-01-04T08:53:36.624Z,96903.06
2018-01-04T08:56:04.956Z,96910.27
2018-01-04T08:58:33.256Z,96904.23
2018-01-04T09:01:01.558Z,96910.48
2018-01-04T09:03:29.923Z,96902.02
2018-01-04T09:05:58.219Z,96897.34
2018-01-04T09:08:26.531Z,96895.12
2018-01-04T09:10:55.644Z,96897.45
2018-01-04T09:13:23.958Z,96893.65
2018-01-04T09:15:52.255Z,96894.81
2018-01-04T09:18:20.647Z,96893.55
2018-01-04T09:20:49.716Z,96887.99
2018-01-04T09:23:18.028Z,96888.48
2018-01-04T09:25:47.463Z,96887.05
2018-01-04T09:28:15.820Z,96877.98
2018-01-04T09:30:44.128Z,96875.16
2018-01-04T09:33:12.596Z,96875.09
2018-01-04T09:35:40.900Z,96879.66
2018-01-04T09:38:09.284Z,96884.05
2018-01-04T09:40:37.674Z,96881.82
2018-01-04T09:43:05.981Z,96879.29
2018-01-04T09:45:34.340Z,96872.36
2018-01-04T09:48:02.636Z,96872.00
2018-01-04T09:50:31.691Z,96868.58
2018-01-04T09:53:00.028Z,96859.80
2018-01-04T09:55:28.333Z,96856.31
2018-01-04T09:57:56.656Z,96849.11
2018-01-04T10:00:25.000Z,96839.46
2018-01-04T10:02:53.315Z,96830.79
2018-01-04T10:05:22.404Z,96816.92
2018-01-04T10:07:51.504Z,96802.89
2018-01-04T10:10:20.720Z,96793.94
2018-01-04T10:12:49.039Z,96787.75
2018-01-04T10:15:17.439Z,96783.25
2018-01-04T10:17:45.767Z,96776.52
2018-01-04T10:20:14.073Z,96771.19
2018-01-04T10:22:42.375Z,96764.09
2018-01-04T10:25:10.720Z,96760.33
2018-01-04T10:27:39.086Z,96752.77
2018-01-04T10:30:07.407Z,96747.13
2018-01-04T10:32:35.717Z,96749.24
2018-01-04T10:35:04.109Z,96742.56
2018-01-04T10:37:32.408Z,96734.00
2018-01-04T10:40:00.787Z,96733.97
2018-01-04T10:42:29.812Z,96725.80
2018-01-04T10:44:58.111Z,96718.63
2018-01-04T10:47:27.223Z,96716.58
2018-01-04T10:49:55.283Z,96704.02
2018-01-04T10:52:24.368Z,96707.89
2018-01-04T10:54:52.860Z,96705.53
2018-01-04T10:57:21.991Z,96695.50
2018-01-04T10:59:50.324Z,96696.77
2018-01-04T11:02:18.640Z,96688.27
2018-01-04T11:04:46.989Z,96687.08
2018-01-04T11:07:16.064Z,96684.79
2018-01-04T11:09:44.363Z,96683.56
2018-01-04T11:12:13.764Z,96670.54
2018-01-04T11:14:42.107Z,96663.80
2018-01-04T11:17:10.565Z,96658.61
2018-01-04T11:19:38.857Z,96658.62
2018-01-04T11:22:07.281Z,96656.26
2018-01-04T11:24:35.597Z,96656.64
2018-01-04T11:27:03.908Z,96654.52
2018-01-04T11:29:32.278Z,96646.44
2018-01-04T11:32:00.575Z,96643.58
2018-01-04T11:34:29.024Z,96636.34
2018-01-04T11:36:57.335Z,96632.23
2018-01-04T11:39:26.022Z,96625.95
2018-01-04T11:41:54.323Z,96626.31
2018-01-04T11:44:22.628Z,96618.71
2018-01-04T11:46:51.384Z,96613.58
2018-01-04T11:49:19.685Z,96608.23
2018-01-04T11:51:47.991Z,96606.95
2018-01-04T11:54:16.355Z,96599.88
2018-01-04T11:56:44.656Z,96597.43
2018-01-04T11:59:12.967Z,96588.73
2018-01-04T12:01:42.087Z,96585.07
2018-01-04T12:04:10.392Z,96581.19
2018-01-04T12:06:38.709Z,96583.06
2018-01-04T12:09:07.232Z,96571.59
2018-01-04T12:11:35.543Z,96573.59
2018-01-04T12:14:04.012Z,96566.76
2018-01-04T12:16:32.316Z,96558.55
2018-01-04T12:19:00.628Z,96557.03
2018-01-04T12:21:28.987Z,96551.44
2018-01-04T12:23:57.301Z,96544.02
2018-01-04T12:26:25.639Z,96535.27
2018-01-04T12:28:54.763Z,96526.37
2018-01-04T12:31:23.232Z,96519.74
2018-01-04T12:33:51.545Z,96518.89
2018-01-04T12:36:19.856Z,96512.41
2018-01-04T12:38:49.001Z,96504.99
2018-01-04T12:41:17.468Z,96499.23
2018-01-04T12:43:45.572Z,96500.84
2018-01-04T12:46:15.252Z,96497.41
2018-01-04T12:48:43.693Z,96497.70
2018-01-04T12:51:12.221Z,96481.94
2018-01-04T12:53:41.063Z,96482.09
2018-01-04T12:56:09.436Z,96473.80
2018-01-04T12:58:37.735Z,96466.63
2018-01-04T13:01:06.804Z,96461.87
2018-01-04T13:03:35.315Z,96462.34
2018-01-04T13:06:04.383Z,96451.30
2018-01-04T13:08:32.684Z,96442.66
2018-01-04T13:11:01.815Z,96438.59
2018-01-04T13:13:30.160Z,96443.85
2018-01-04T13:15:58.524Z,96445.27
2018-01-04T13:18:27.152Z,96444.22
2018-01-04T13:20:55.461Z,96439.88
2018-01-04T13:23:23.808Z,96434.19
2018-01-04T13:25:52.112Z,96429.02
2018-01-04T13:28:20.516Z,96434.92
2018-01-04T13:30:48.659Z,96431.34
2018-01-04T13:33:16.975Z,96432.41
2018-01-04T13:35:45.332Z,96434.98
2018-01-04T13:38:13.844Z,96439.86
2018-01-04T13:40:42.952Z,96433.77
2018-01-04T13:43:12.023Z,96427.44
2018-01-04T13:45:40.398Z,96428.71
2018-01-04T13:48:08.715Z,96427.29
2018-01-04T13:50:37.041Z,96426.28
2018-01-04T13:53:05.393Z,96423.09
2018-01-04T13:55:33.691Z,96419.52
2018-01-04T13:58:02.013Z,96423.47
2018-01-04T14:00:30.454Z,96426.98
2018-01-04T14:02:58.789Z,96432.60
2018-01-04T14:05:27.117Z,96426.47
2018-01-04T14:07:55.596Z,96428.63
2018-01-04T14:10:23.905Z,96429.77
2018-01-04T14:12:53.172Z,96423.50
2018-01-04T14:15:24.726Z,96420.14
2018-01-04T14:17:53.827Z,96419.52
2018-01-04T14:20:22.208Z,96420.91
2018-01-04T14:22:50.420Z,96424.29
2018-01-04T14:25:19.208Z,96422.17
2018-01-04T14:27:47.512Z,96420.78
2018-01-04T14:30:15.929Z,96420.84
2018-01-04T14:32:44.328Z,96426.37
2018-01-04T14:35:13.661Z,96424.94
2018-01-04T14:37:42.051Z,96428.19
2018-01-04T14:40:10.465Z,96423.61
2018-01-04T14:42:38.872Z,96425.59
2018-01-04T14:45:07.944Z,96425.61
2018-01-04T14:47:36.306Z,96421.78
2018-01-04T14:50:04.658Z,96417.30
2018-01-04T14:52:32.968Z,96415.69
2018-01-04T14:55:01.269Z,96425.59
2018-01-04T14:57:30.393Z,96427.05
2018-01-04T14:59:58.711Z,96428.94
2018-01-04T15:02:27.020Z,96425.42
2018-01-04T15:04:55.415Z,96428.09
2018-01-04T15:07:23.723Z,96419.23
2018-01-04T15:09:52.023Z,96415.53
2018-01-04T15:12:20.380Z,96413.25
2018-01-04T15:14:48.682Z,96418.95
2018-01-04T15:17:16.988Z,96423.05
2018-01-04T15:19:46.211Z,96416.86
2018-01-04T15:22:14.532Z,96419.84
2018-01-04T15:24:42.924Z,96420.53
2018-01-04T15:27:11.299Z,96418.81
2018-01-04T15:29:39.624Z,96425.39
2018-01-04T15:32:07.996Z,96431.52
2018-01-04T15:34:36.300Z,96426.00
2018-01-04T15:37:04.620Z,96426.02
2018-01-04T15:39:32.979Z,96428.44
2018-01-04T15:42:01.303Z,96427.30
2018-01-04T15:44:29.621Z,96423.66
2018-01-04T15:46:58.024Z,96426.59
2018-01-04T15:49:26.517Z,96425.99
2018-01-04T15:51:55.308Z,96416.28
2018-01-04T15:54:23.652Z,96412.59
2018-01-04T15:56:51.988Z,96409.88
2018-01-04T15:59:20.441Z,96412.61
2018-01-04T16:01:48.848Z,96406.72
2018-01-04T16:04:17.920Z,96405.53
2018-01-04T16:06:47.081Z,96391.38
2018-01-04T16:09:15.441Z,96402.56
2018-01-04T16:11:43.800Z,96398.78
2018-01-04T16:14:12.913Z,96398.73
2018-01-04T16:16:41.260Z,96403.31
2018-01-04T16:19:09.755Z,96405.86
2018-01-04T16:21:38.133Z,96409.48
2018-01-04T16:24:07.236Z,96403.49
2018-01-04T16:26:35.601Z,96399.93
2018-01-04T16:29:03.925Z,96402.73
2018-01-04T16:31:32.283Z,96404.55
2018-01-04T16:34:00.670Z,96408.00
2018-01-04T16:36:29.040Z,96408.08
2018-01-04T16:38:57.422Z,96410.48
2018-01-04T16:41:25.828Z,96413.51
2018-01-04T16:43:54.187Z,96423.72
2018-01-04T16:46:22.504Z,96421.20
2018-01-04T16:48:51.040Z,96419.06
2018-01-04T16:51:19.360Z,96431.81
2018-01-04T16:53:47.684Z,96429.27
2018-01-04T16:56:16.052Z,96428.55
2018-01-04T16:58:45.125Z,96429.48
2018-01-04T17:01:16.805Z,96430.53
2018-01-04T17:03:48.290Z,96427.27
2018-01-04T17:06:16.682Z,96427.98
2018-01-04T17:08:45.031Z,96430.67
2018-01-04T17:11:13.404Z,96430.12
2018-01-04T17:13:41.721Z,96424.03
2018-01-04T17:16:10.034Z,96435.39
2018-01-04T17:18:39.223Z,96424.42
2018-01-04T17:21:07.560Z,96420.44
2018-01-04T17:23:35.953Z,96413.84
2018-01-04T17:26:04.909Z,96414.48
2018-01-04T17:28:33.344Z,96419.97
2018-01-04T17:31:02.344Z,96414.65
2018-01-04T17:33:31.177Z,96410.99
2018-01-04T17:35:59.879Z,96414.30
2018-01-04T17:38:28.247Z,96412.61
2018-01-04T17:40:57.965Z,96404.75
2018-01-04T17:43:26.280Z,96392.58
2018-01-04T17:45:55.371Z,96393.62
2018-01-04T17:48:23.859Z,96392.34
2018-01-04T17:50:52.593Z,96395.06
2018-01-04T17:53:21.078Z,96399.70
2018-01-04T17:55:50.049Z,96402.79
2018-01-04T17:58:19.148Z,96404.20
2018-01-04T18:00:48.181Z,96402.41
2018-01-04T18:03:17.406Z,96398.72
2018-01-04T18:05:46.004Z,96399.64
2018-01-04T18:08:15.096Z,96401.30
2018-01-04T18:10:44.708Z,96399.31
2018-01-04T18:13:13.175Z,96400.72
2018-01-04T18:15:41.957Z,96401.09
2018-01-04T18:18:10.337Z,96397.23
2018-01-04T18:20:39.325Z,96398.63
2018-01-04T18:23:07.884Z,96396.69
2018-01-04T18:25:36.697Z,96388.44
2018-01-04T18:28:05.019Z,96380.92
2018-01-04T18:30:33.612Z,96386.56
2018-01-04T18:33:02.340Z,96392.52
2018-01-04T18:35:30.518Z,96386.88
2018-01-04T18:37:59.672Z,96389.34
2018-01-04T18:40:28.284Z,96383.34
2018-01-04T18:42:56.881Z,96375.69
2018-01-04T18:45:25.401Z,96372.67
2018-01-04T18:47:54.649Z,96370.92
2018-01-04T18:50:23.276Z,96369.65
2018-01-04T18:52:52.649Z,96372.67
2018-01-04T18:55:21.852Z,96375.05
2018-01-04T18:57:51.064Z,96369.61
2018-01-04T19:00:19.959Z,96374.84
2018-01-04T19:02:49.895Z,96376.59
2018-01-04T19:05:19.132Z,96382.40
2018-01-04T19:07:53.723Z,96370.96
2018-01-04T19:10:32.262Z,96371.31
2018-01-04T19:13:04.409Z,96371.31
2018-01-04T19:15:55.460Z,96368.13
2018-01-04T19:18:24.794Z,96367.74
2018-01-04T19:20:54.493Z,96368.88
2018-01-04T19:23:23.795Z,96358.82
2018-01-04T19:25:52.731Z,96359.78
2018-01-04T19:28:21.991Z,96363.23
2018-01-04T19:30:51.052Z,96372.45
2018-01-04T19:33:20.960Z,96366.89
2018-01-04T19:35:49.913Z,96366.55
2018-01-04T19:38:19.182Z,96365.50
2018-01-04T19:40:47.682Z,96363.48
2018-01-04T19:43:16.528Z,96360.94
2018-01-04T19:45:45.613Z,96361.73
2018-01-04T19:48:16.176Z,96360.05
2018-01-04T19:50:46.274Z,96351.19
2018-01-04T19:53:15.770Z,96354.09
2018-01-04T19:55:44.305Z,96346.69
2018-01-04T19:58:13.972Z,96354.59
2018-01-04T20:00:43.478Z,96354.12
2018-01-04T20:03:12.181Z,96361.39
2018-01-04T20:05:42.314Z,96358.45
2018-01-04T20:08:11.465Z,96354.03
2018-01-04T20:10:40.008Z,96347.91
2018-01-04T20:13:08.795Z,96354.35
2018-01-04T20:15:37.915Z,96355.05
2018-01-04T20:18:07.088Z,96352.75
2018-01-04T20:20:35.508Z,96359.98
2018-01-04T20:23:03.884Z,96360.41
2018-01-04T20:25:32.927Z,96367.87
2018-01-04T20:28:01.779Z,96365.67
2018-01-04T20:30:30.821Z,96368.34
2018-01-04T20:32:59.919Z,96378.54
2018-01-04T20:35:31.665Z,96373.86
2018-01-04T20:38:00.633Z,96381.25
2018-01-04T20:40:29.785Z,96387.12
2018-01-04T20:42:58.322Z,96385.46
2018-01-04T20:45:26.895Z,96398.98
2018-01-04T20:47:57.060Z,96415.43
2018-01-04T20:50:25.799Z,96426.74
2018-01-04T20:52:54.310Z,96437.80
2018-01-04T20:55:22.742Z,96443.41
2018-01-04T20:57:51.671Z,96503.88
2018-01-04T21:00:20.306Z,96534.44
2018-01-04T21:02:48.576Z,96503.36
2018-01-04T21:05:17.531Z,96512.17
2018-01-04T21:07:47.288Z,96500.73
2018-01-04T21:10:16.371Z,96504.83
2018-01-04T21:12:45.507Z,96498.02
2018-01-04T21:15:14.870Z,96489.22
2018-01-04T21:17:43.896Z,96518.45
2018-01-04T21:20:12.802Z,96525.85
2018-01-04T21:22:41.195Z,96527.64
2018-01-04T21:25:10.103Z,96531.77
2018-01-04T21:27:38.795Z,96546.02
2018-01-04T21:30:07.651Z,96532.01
2018-01-04T21:32:36.724Z,96547.11
2018-01-04T21:35:05.754Z,96568.41
2018-01-04T21:37:34.968Z,96565.76
2018-01-04T21:40:04.067Z,96576.13
2018-01-04T21:42:33.067Z,96599.11
2018-01-04T21:45:02.043Z,96598.89
2018-01-04T21:47:30.893Z,96605.12
2018-01-04T21:49:59.532Z,96622.27
2018-01-04T21:52:27.902Z,96627.37
2018-01-04T21:54:56.335Z,96622.72
2018-01-04T21:57:24.786Z,96623.50
2018-01-04T21:59:53.229Z,96627.97
2018-01-04T22:02:21.635Z,96665.83
2018-01-04T22:04:51.344Z,96643.81
2018-01-04T22:07:20.630Z,96663.09
2018-01-04T22:09:49.915Z,96661.36
2018-01-04T22:12:18.584Z,96669.08
2018-01-04T22:14:47.281Z,96674.64
2018-01-04T22:17:15.650Z,96665.54
2018-01-04T22:19:44.405Z,96644.95
2018-01-04T22:22:13.596Z,96667.38
2018-01-04T22:24:42.956Z,96665.06
2018-01-04T22:27:12.271Z,96680.13
2018-01-04T22:29:41.737Z,96684.58
2018-01-04T22:32:10.931Z,96664.36
2018-01-04T22:34:39.868Z,96688.06
2018-01-04T22:37:09.041Z,96685.02
2018-01-04T22:39:37.915Z,96693.33
2018-01-04T22:42:06.887Z,96700.95
2018-01-04T22:44:35.427Z,96727.05
2018-01-04T22:47:03.789Z,96739.06
2018-01-04T22:49:32.944Z,96748.82
2018-01-04T22:52:01.303Z,96745.94
2018-01-04T22:54:30.173Z,96755.48
2018-01-04T22:56:59.079Z,96757.67
2018-01-04T22:59:28.519Z,96766.91
2018-01-04T23:01:57.447Z,96767.33
2018-01-04T23:04:25.800Z,96763.05
2018-01-04T23:06:54.643Z,96769.92
2018-01-04T23:09:24.771Z,96778.39
2018-01-04T23:11:53.831Z,96768.77
2018-01-04T23:14:22.235Z,96776.62
2018-01-04T23:16:51.324Z,96784.67
2018-01-04T23:19:19.733Z,96795.63
2018-01-04T23:21:48.100Z,96780.98
2018-01-04T23:24:16.583Z,96788.33
2018-01-04T23:26:45.942Z,96794.22
2018-01-04T23:29:14.516Z,96796.69
2018-01-04T23:31:42.905Z,96806.56
2018-01-04T23:34:11.259Z,96814.44
2018-01-04T23:36:39.618Z,96829.38
2018-01-04T23:39:08.039Z,96830.95
2018-01-04T23:41:37.324Z,96837.41
2018-01-04T23:44:06.384Z,96847.05
2018-01-04T23:46:35.494Z,96859.26
2018-01-04T23:49:03.847Z,96858.70
2018-01-04T23:51:32.345Z,96855.05
2018-01-04T23:54:03.018Z,96856.62
2018-01-04T23:56:31.592Z,96853.72
2018-01-04T23:58:59.946Z,96855.68
